Time;durP1;ratioP1;P1;durP2;ratioP2;P2;SDS_P1;SDS_P2;PMS_P1;PMS_P2;Temp;Humidity;BMP_temperature;BMP_pressure;BME280_temperature;BME280_humidity;BME280_pressure;Samples;Min_cycle;Max_cycle;Signal;HPM_P1;HPM_P2
2023/01/16 00:01:25;;;;;;;7.10;3.43;;;;;;;5.47;100.00;99737.72;5029532;28;20225;-72
2023/01/16 00:03:51;;;;;;;6.30;3.07;;;;;;;5.49;100.00;99742.03;5028787;28;20281;-72
2023/01/16 00:06:16;;;;;;;4.87;2.93;;;;;;;5.49;100.00;99736.97;5027173;28;20252;-73
2023/01/16 00:08:43;;;;;;;9.80;3.70;;;;;;;5.52;100.00;99733.63;5029350;28;20670;-73
2023/01/16 00:11:09;;;;;;;8.57;3.20;;;;;;;5.53;100.00;99741.25;5022797;28;20187;-72
2023/01/16 00:13:34;;;;;;;4.60;2.70;;;;;;;5.52;100.00;99741.25;5029675;28;20191;-72
2023/01/16 00:16:00;;;;;;;5.93;2.70;;;;;;;5.54;100.00;99744.66;5013076;28;20194;-72
2023/01/16 00:18:25;;;;;;;6.20;2.63;;;;;;;5.55;100.00;99739.63;5025914;28;20703;-73
2023/01/16 00:20:50;;;;;;;6.57;3.03;;;;;;;5.57;100.00;99747.28;5029897;28;20666;-73
2023/01/16 00:23:16;;;;;;;8.03;2.70;;;;;;;5.56;100.00;99745.53;5028288;28;21363;-73
2023/01/16 00:25:43;;;;;;;4.67;2.60;;;;;;;5.56;100.00;99738.78;5026780;28;20222;-73
2023/01/16 00:28:11;;;;;;;6.37;2.83;;;;;;;5.57;100.00;99729.50;5028657;28;20274;-73
2023/01/16 00:30:37;;;;;;;5.13;2.40;;;;;;;5.58;100.00;99728.66;5028590;28;20190;-73
2023/01/16 00:33:03;;;;;;;5.47;2.30;;;;;;;5.58;100.00;99724.44;5030277;28;20285;-73
2023/01/16 00:35:28;;;;;;;6.37;2.50;;;;;;;5.58;100.00;99719.34;5027243;28;20226;-73
2023/01/16 00:37:54;;;;;;;5.07;2.53;;;;;;;5.58;100.00;99724.44;5029070;28;20182;-73
2023/01/16 00:40:20;;;;;;;5.80;2.60;;;;;;;5.59;100.00;99716.00;5027343;28;20654;-73
2023/01/16 00:42:45;;;;;;;4.53;2.13;;;;;;;5.58;100.00;99721.88;5030359;28;20217;-73
2023/01/16 00:45:11;;;;;;;6.70;2.30;;;;;;;5.59;100.00;99712.59;5027419;28;20194;-73
2023/01/16 00:47:37;;;;;;;8.53;2.60;;;;;;;5.58;100.00;99716.81;5027960;28;20194;-73
2023/01/16 00:50:03;;;;;;;5.40;2.30;;;;;;;5.59;100.00;99710.94;5029318;28;20208;-72
2023/01/16 00:52:28;;;;;;;9.93;2.97;;;;;;;5.61;100.00;99710.97;5029636;28;20221;-72
2023/01/16 00:54:54;;;;;;;4.63;2.20;;;;;;;5.62;100.00;99710.13;5015798;28;20570;-72
2023/01/16 00:57:19;;;;;;;4.97;2.30;;;;;;;5.62;100.00;99708.44;5024939;28;20182;-73
2023/01/16 00:59:45;;;;;;;5.80;2.20;;;;;;;5.64;100.00;99703.41;5024859;28;20201;-72
2023/01/16 01:02:10;;;;;;;4.77;2.00;;;;;;;5.62;100.00;99700.81;5010129;28;20221;-72
2023/01/16 01:04:36;;;;;;;4.60;2.20;;;;;;;5.61;100.00;99704.19;5006467;28;20207;-73
2023/01/16 01:07:01;;;;;;;2.57;1.80;;;;;;;5.62;100.00;99705.06;5009658;28;20182;-73
2023/01/16 01:09:27;;;;;;;6.33;2.00;;;;;;;5.58;100.00;99701.56;5021297;28;20245;-73
2023/01/16 01:11:52;;;;;;;11.43;2.10;;;;;;;5.60;100.00;99694.00;5009240;28;20210;-73
2023/01/16 01:14:17;;;;;;;6.77;2.40;;;;;;;5.56;100.00;99699.84;5029212;28;20672;-73
2023/01/16 01:16:43;;;;;;;4.60;1.57;;;;;;;5.52;100.00;99691.31;5009527;28;20198;-73
2023/01/16 01:19:08;;;;;;;3.90;1.67;;;;;;;5.45;100.00;99692.03;5029265;28;20214;-73
2023/01/16 01:21:34;;;;;;;5.73;2.03;;;;;;;5.42;100.00;99691.06;5028782;28;20680;-73
2023/01/16 01:23:59;;;;;;;3.00;1.70;;;;;;;5.34;100.00;99693.47;5011554;28;20630;-72
2023/01/16 01:26:25;;;;;;;4.33;1.80;;;;;;;5.37;100.00;99693.53;5011680;28;20179;-72
2023/01/16 01:28:50;;;;;;;4.07;1.50;;;;;;;5.30;100.00;99686.59;5027783;28;20678;-73
2023/01/16 01:31:15;;;;;;;6.00;1.60;;;;;;;5.27;100.00;99688.22;5027856;28;20611;-72
2023/01/16 01:33:41;;;;;;;5.73;1.90;;;;;;;5.21;100.00;99686.41;5026426;28;20197;-73
2023/01/16 01:36:08;;;;;;;2.90;1.77;;;;;;;5.17;100.00;99677.03;5028622;28;20185;-72
2023/01/16 01:38:33;;;;;;;6.53;1.93;;;;;;;5.12;100.00;99675.22;5028951;28;20205;-73
2023/01/16 01:40:59;;;;;;;9.93;1.97;;;;;;;5.10;100.00;99680.25;5026374;28;22069;-73
2023/01/16 01:43:40;;;;;;;6.83;2.60;;;;;;;5.10;100.00;99677.72;5024651;28;20651;-73
2023/01/16 01:46:05;;;;;;;8.20;2.60;;;;;;;5.08;100.00;99683.56;5028401;28;20376;-73
2023/01/16 01:48:39;;;;;;;7.27;1.70;;;;;;;5.06;100.00;99675.09;5008348;28;20269;-73
2023/01/16 01:51:09;;;;;;;5.50;1.70;;;;;;;5.06;100.00;99680.16;5025361;28;20670;-73
2023/01/16 01:53:49;;;;;;;5.23;1.50;;;;;;;5.07;100.00;99671.72;5006657;28;20190;-73
2023/01/16 01:56:36;;;;;;;2.93;1.33;;;;;;;5.03;100.00;99662.34;5021130;28;20652;-73
2023/01/16 01:59:12;;;;;;;4.43;1.80;;;;;;;5.01;100.00;99658.91;5022259;28;20198;-73
2023/01/16 02:01:39;;;;;;;6.43;2.37;;;;;;;4.97;100.00;99655.44;5021221;28;20300;-74
2023/01/16 02:04:12;;;;;;;3.90;1.77;;;;;;;4.97;100.00;99644.47;5014602;28;20282;-73
2023/01/16 02:06:47;;;;;;;7.30;2.00;;;;;;;4.94;100.00;99637.63;5019739;28;20248;-73
2023/01/16 02:09:14;;;;;;;2.83;1.53;;;;;;;4.92;100.00;99634.19;5021835;28;20190;-73
2023/01/16 02:11:53;;;;;;;5.43;1.57;;;;;;;4.87;100.00;99637.44;5026279;28;20256;-73
2023/01/16 02:14:20;;;;;;;5.57;1.53;;;;;;;4.86;100.00;99640.81;5023024;28;20198;-73
2023/01/16 02:19:47;;;;;;;3.97;1.57;;;;;;;4.85;100.00;99639.09;5026040;28;20209;-74
2023/01/16 02:22:39;;;;;;;4.30;1.60;;;;;;;4.84;100.00;99635.69;5024701;28;20223;-73
2023/01/16 02:25:11;;;;;;;4.43;1.50;;;;;;;4.81;100.00;99628.03;5023978;28;20281;-74
2023/01/16 02:27:57;;;;;;;4.70;1.37;;;;;;;4.82;100.00;99637.34;5026228;28;20220;-73
2023/01/16 02:30:23;;;;;;;4.60;1.73;;;;;;;4.83;100.00;99630.63;5027108;28;20667;-74
2023/01/16 02:33:00;;;;;;;4.00;1.60;;;;;;;4.82;100.00;99627.22;5024439;28;20585;-74
2023/01/16 02:35:55;;;;;;;2.03;1.30;;;;;;;4.84;100.00;99625.56;5023296;28;20202;-73
2023/01/16 02:38:28;;;;;;;4.90;1.50;;;;;;;4.83;100.00;99626.38;5021350;28;20198;-72
2023/01/16 02:40:59;;;;;;;5.77;1.27;;;;;;;4.82;100.00;99624.69;5007873;28;20199;-73
2023/01/16 02:43:38;;;;;;;2.63;1.20;;;;;;;4.82;100.00;99616.19;4993670;28;20224;-72
2023/01/16 02:46:27;;;;;;;4.20;1.33;;;;;;;4.83;100.00;99607.78;5015929;28;20222;-73
2023/01/16 02:49:05;;;;;;;5.33;1.80;;;;;;;4.84;100.00;99601.91;5005566;28;20199;-72
2023/01/16 02:51:42;;;;;;;3.73;1.40;;;;;;;4.85;100.00;99596.00;5020873;28;20236;-72
2023/01/16 02:54:16;;;;;;;6.70;1.70;;;;;;;4.85;100.00;99596.00;5024612;28;20277;-73
2023/01/16 02:56:51;;;;;;;3.77;1.80;;;;;;;4.87;100.00;99591.81;5016691;28;20206;-72
2023/01/16 02:59:18;;;;;;;6.13;1.63;;;;;;;4.87;100.00;99581.66;5010731;28;20197;-72
2023/01/16 03:01:49;;;;;;;6.27;2.07;;;;;;;4.89;100.00;99577.50;5010712;28;20249;-73
2023/01/16 03:04:36;;;;;;;5.83;1.93;;;;;;;4.88;100.00;99574.09;5005566;28;20199;-73
2023/01/16 03:07:13;;;;;;;3.27;1.50;;;;;;;4.90;100.00;99572.47;5022313;28;20178;-73
2023/01/16 03:09:48;;;;;;;5.67;1.53;;;;;;;4.93;100.00;99564.91;5007635;28;20286;-74
2023/01/16 03:12:28;;;;;;;3.40;2.27;;;;;;;4.91;100.00;99564.03;5007635;28;20218;-73
2023/01/16 03:14:54;;;;;;;6.60;2.00;;;;;;;4.93;100.00;99564.06;5024565;28;20563;-73
2023/01/16 03:17:53;;;;;;;4.13;1.47;;;;;;;4.89;100.00;99565.69;5028702;28;20194;-72
2023/01/16 03:21:11;;;;;;;5.00;1.63;;;;;;;4.91;100.00;99560.63;5030851;28;20403;-73
2023/01/16 03:23:43;;;;;;;4.17;1.40;;;;;;;4.90;100.00;99556.38;4993414;28;20275;-73
2023/01/16 03:26:41;;;;;;;5.07;1.50;;;;;;;4.93;100.00;99549.69;5028915;28;20289;-73
2023/01/16 03:29:10;;;;;;;7.13;2.13;;;;;;;4.92;100.00;99539.53;5028721;28;20304;-73
2023/01/16 03:31:42;;;;;;;2.70;1.33;;;;;;;4.94;100.00;99543.81;5021637;28;20218;-73
2023/01/16 03:34:17;;;;;;;5.73;1.70;;;;;;;4.97;100.00;99543.00;5016392;28;20198;-73
2023/01/16 03:36:56;;;;;;;5.17;1.47;;;;;;;4.94;100.00;99535.34;5029298;28;20264;-73
2023/01/16 03:39:27;;;;;;;4.67;1.50;;;;;;;4.96;100.00;99531.13;5027424;28;20198;-72
2023/01/16 03:41:57;;;;;;;4.93;1.77;;;;;;;4.98;100.00;99517.66;5023416;28;20246;-73
2023/01/16 03:44:38;;;;;;;6.00;1.70;;;;;;;4.96;100.00;99516.78;5009918;28;20699;-73
2023/01/16 03:47:08;;;;;;;5.70;1.70;;;;;;;5.00;100.00;99522.75;5022393;28;20191;-73
2023/01/16 03:49:44;;;;;;;3.07;1.33;;;;;;;5.00;100.00;99518.56;5025818;28;20206;-72
2023/01/16 03:52:14;;;;;;;3.37;1.20;;;;;;;4.99;100.00;99516.84;5017311;28;20218;-73
2023/01/16 03:54:58;;;;;;;6.03;1.20;;;;;;;4.99;100.00;99513.44;5010430;28;20260;-73
2023/01/16 03:57:28;;;;;;;2.50;1.40;;;;;;;5.00;100.00;99508.41;5024408;28;20234;-74
2023/01/16 03:59:54;;;;;;;3.77;1.47;;;;;;;4.99;100.00;99496.56;5028626;28;20229;-73
2023/01/16 04:02:50;;;;;;;4.93;1.20;;;;;;;5.01;100.00;99489.00;5027024;28;20302;-74
2023/01/16 04:05:27;;;;;;;4.80;1.50;;;;;;;4.98;100.00;99496.53;5010638;28;20267;-74
2023/01/16 04:07:58;;;;;;;5.13;1.30;;;;;;;5.00;100.00;99489.78;5029904;28;20198;-74
2023/01/16 04:10:39;;;;;;;8.40;1.30;;;;;;;5.03;100.00;99493.28;5027191;28;20567;-73
2023/01/16 04:13:08;;;;;;;4.80;1.20;;;;;;;5.03;100.00;99489.88;5021628;28;20314;-74
2023/01/16 04:15:36;;;;;;;6.47;1.70;;;;;;;5.03;100.00;99488.19;5012639;28;20272;-73
2023/01/16 04:18:02;;;;;;;4.17;1.30;;;;;;;5.02;100.00;99486.47;5029625;28;20835;-73
2023/01/16 04:20:29;;;;;;;4.63;1.37;;;;;;;5.04;100.00;99486.50;5031911;28;20202;-73
2023/01/16 04:22:55;;;;;;;3.97;1.50;;;;;;;5.04;100.00;99478.88;5023671;28;20304;-73
2023/01/16 04:25:21;;;;;;;3.17;1.33;;;;;;;5.05;100.00;99473.84;5012169;28;20729;-72
2023/01/16 04:27:47;;;;;;;4.33;1.10;;;;;;;5.06;100.00;99462.88;5003643;28;20214;-73
2023/01/16 04:30:15;;;;;;;5.33;1.43;;;;;;;5.07;100.00;99456.97;5032578;28;20233;-73
2023/01/16 04:32:41;;;;;;;4.13;1.27;;;;;;;5.06;100.00;99455.25;5006345;28;20235;-73
2023/01/16 04:35:07;;;;;;;4.33;1.20;;;;;;;5.04;100.00;99454.38;5026185;28;20252;-73
2023/01/16 04:37:33;;;;;;;7.17;1.93;;;;;;;5.04;100.00;99446.78;5032129;28;20280;-73
2023/01/16 04:39:59;;;;;;;4.50;1.67;;;;;;;5.05;100.00;99435.81;5026199;28;20201;-73
2023/01/16 04:42:25;;;;;;;3.30;0.87;;;;;;;5.05;100.00;99433.25;5028077;28;20217;-74
2023/01/16 04:44:50;;;;;;;4.07;1.50;;;;;;;5.05;100.00;99432.41;5011897;28;20217;-73
2023/01/16 04:47:16;;;;;;;3.67;1.20;;;;;;;5.00;100.00;99434.88;5025596;28;20556;-73
2023/01/16 04:49:41;;;;;;;5.47;1.00;;;;;;;4.95;100.00;99426.31;5026286;28;20567;-73
2023/01/16 04:52:07;;;;;;;7.43;1.27;;;;;;;4.88;100.00;99414.34;5033538;28;20218;-72
2023/01/16 04:54:32;;;;;;;3.03;1.03;;;;;;;4.85;100.00;99419.38;5026800;28;20230;-72
2023/01/16 04:56:58;;;;;;;4.20;1.20;;;;;;;4.80;100.00;99418.44;5028322;28;20208;-72
2023/01/16 04:59:23;;;;;;;4.10;1.10;;;;;;;4.76;100.00;99423.41;5029074;28;20807;-73
2023/01/16 05:01:48;;;;;;;5.80;1.20;;;;;;;4.75;100.00;99420.00;5032688;28;20288;-72
2023/01/16 05:04:15;;;;;;;3.77;1.20;;;;;;;4.73;100.00;99418.25;5028334;28;20217;-73
2023/01/16 05:06:41;;;;;;;5.63;1.20;;;;;;;4.73;100.00;99421.66;5024569;28;20281;-72
2023/01/16 05:09:07;;;;;;;3.97;1.40;;;;;;;4.74;100.00;99418.31;5027856;28;20708;-72
2023/01/16 05:11:33;;;;;;;6.77;1.50;;;;;;;4.71;100.00;99420.78;5029731;28;20264;-73
2023/01/16 05:14:00;;;;;;;3.50;1.43;;;;;;;4.72;100.00;99419.97;5024027;28;20215;-72
2023/01/16 05:16:26;;;;;;;5.03;1.43;;;;;;;4.76;100.00;99421.75;5026907;28;20237;-73
2023/01/16 05:18:51;;;;;;;3.37;0.90;;;;;;;4.77;100.00;99420.91;5029486;28;20191;-73
2023/01/16 05:21:17;;;;;;;4.87;1.20;;;;;;;4.77;100.00;99413.31;5021498;28;20194;-73
2023/01/16 05:23:42;;;;;;;2.83;1.40;;;;;;;4.77;100.00;99405.69;5006118;28;20217;-73
2023/01/16 05:26:08;;;;;;;4.97;1.30;;;;;;;4.77;100.00;99404.81;5024572;28;20248;-72
2023/01/16 05:28:35;;;;;;;3.93;1.23;;;;;;;4.76;100.00;99401.47;5028064;28;20229;-74
2023/01/16 05:31:01;;;;;;;3.93;1.10;;;;;;;4.76;100.00;99403.13;5026190;28;20202;-72
2023/01/16 05:33:26;;;;;;;4.03;1.20;;;;;;;4.77;100.00;99409.91;5008547;28;20221;-72
2023/01/16 05:35:53;;;;;;;4.20;1.10;;;;;;;4.77;100.00;99409.91;5003721;28;20190;-72
2023/01/16 05:38:19;;;;;;;2.83;1.10;;;;;;;4.77;100.00;99405.69;5027304;28;20918;-73
2023/01/16 05:40:46;;;;;;;4.43;1.10;;;;;;;4.76;100.00;99393.84;5009057;28;20734;-73
2023/01/16 05:43:11;;;;;;;3.53;1.00;;;;;;;4.77;100.00;99399.75;5009216;28;20225;-72
2023/01/16 05:45:37;;;;;;;4.43;1.80;;;;;;;4.75;100.00;99389.59;5029393;28;20205;-73
2023/01/16 05:48:03;;;;;;;3.90;1.07;;;;;;;4.76;100.00;99385.38;5022577;28;20324;-73
2023/01/16 05:50:29;;;;;;;7.20;1.00;;;;;;;4.77;100.00;99385.41;5029149;28;20592;-72
2023/01/16 05:52:55;;;;;;;2.93;1.00;;;;;;;4.75;100.00;99379.44;5012434;28;20264;-72
2023/01/16 05:55:20;;;;;;;1.90;1.20;;;;;;;4.75;100.00;99379.44;5024640;28;20563;-72
2023/01/16 05:57:46;;;;;;;5.67;1.30;;;;;;;4.74;100.00;99367.59;5011776;28;20581;-72
2023/01/16 06:00:12;;;;;;;2.17;0.90;;;;;;;4.74;100.00;99367.59;5010335;28;20186;-73
2023/01/16 06:02:37;;;;;;;4.13;0.90;;;;;;;4.75;100.00;99369.31;5026358;28;20589;-72
2023/01/16 06:05:03;;;;;;;1.60;0.77;;;;;;;4.75;100.00;99369.31;5024334;28;20201;-72
2023/01/16 06:07:29;;;;;;;5.43;1.20;;;;;;;4.76;100.00;99363.44;5030418;28;20205;-73
2023/01/16 06:09:54;;;;;;;4.80;0.90;;;;;;;4.78;100.00;99355.84;5017305;28;20285;-73
2023/01/16 06:12:20;;;;;;;3.53;1.00;;;;;;;4.74;100.00;99359.16;5021461;28;20207;-73
2023/01/16 06:14:46;;;;;;;4.23;0.93;;;;;;;4.72;100.00;99351.53;5022935;28;20217;-73
2023/01/16 06:17:16;;;;;;;2.97;0.90;;;;;;;4.70;100.00;99347.25;5023441;28;20202;-72
2023/01/16 06:19:43;;;;;;;3.03;0.87;;;;;;;4.69;100.00;99353.16;5027819;28;20201;-74
2023/01/16 06:22:09;;;;;;;2.43;1.10;;;;;;;4.68;100.00;99346.34;5027096;28;20218;-73
2023/01/16 06:24:34;;;;;;;4.47;1.17;;;;;;;4.69;100.00;99348.09;5029371;28;20274;-72
2023/01/16 06:27:00;;;;;;;2.13;0.87;;;;;;;4.67;100.00;99344.66;5021163;28;20199;-73
2023/01/16 06:29:25;;;;;;;4.60;1.00;;;;;;;4.69;100.00;99337.94;5026732;28;20198;-73
2023/01/16 06:31:51;;;;;;;3.13;0.90;;;;;;;4.68;100.00;99337.09;5022961;28;20224;-73
2023/01/16 06:34:16;;;;;;;3.53;1.07;;;;;;;4.68;100.00;99341.28;5025065;28;20206;-72
2023/01/16 06:36:42;;;;;;;3.50;1.23;;;;;;;4.70;100.00;99343.03;5025721;28;20568;-73
2023/01/16 06:39:11;;;;;;;2.30;0.87;;;;;;;4.70;100.00;99337.13;5021483;28;20195;-72
2023/01/16 06:41:36;;;;;;;3.47;1.03;;;;;;;4.71;100.00;99336.28;5026115;28;20225;-72
2023/01/16 06:44:02;;;;;;;3.13;1.10;;;;;;;4.71;100.00;99342.22;5026849;28;20595;-72
2023/01/16 06:46:27;;;;;;;3.23;0.90;;;;;;;4.70;100.00;99330.34;5024203;28;20222;-72
2023/01/16 06:48:52;;;;;;;3.47;1.10;;;;;;;4.72;100.00;99326.19;5028114;28;20206;-73
2023/01/16 06:51:18;;;;;;;3.50;1.00;;;;;;;4.72;100.00;99322.78;5028736;28;20218;-73
2023/01/16 06:53:43;;;;;;;3.00;0.90;;;;;;;4.71;100.00;99324.47;5028147;28;20269;-73
2023/01/16 06:56:08;;;;;;;4.43;1.27;;;;;;;4.74;100.00;99313.53;5026267;28;20224;-72
2023/01/16 06:58:34;;;;;;;5.37;1.33;;;;;;;4.73;100.00;99310.13;5029059;28;20302;-73
2023/01/16 07:01:00;;;;;;;6.27;1.10;;;;;;;4.72;100.00;99297.44;5029047;28;20257;-73
2023/01/16 07:03:25;;;;;;;2.57;0.90;;;;;;;4.70;100.00;99294.03;5024526;28;20217;-73
2023/01/16 07:05:50;;;;;;;3.87;1.10;;;;;;;4.67;100.00;99296.50;5034915;28;20209;-73
2023/01/16 07:08:16;;;;;;;3.50;0.70;;;;;;;4.64;100.00;99288.81;5027622;28;20203;-73
2023/01/16 07:10:42;;;;;;;2.90;0.90;;;;;;;4.61;100.00;99291.31;5025269;28;20194;-73
2023/01/16 07:13:09;;;;;;;4.33;1.00;;;;;;;4.58;100.00;99283.66;5026641;28;20856;-73
2023/01/16 07:24:05;;;;;;;2.90;1.00;;;;;;;4.53;100.00;99285.25;5029476;28;20268;-73
2023/01/16 07:26:33;;;;;;;2.90;0.87;;;;;;;4.52;100.00;99275.97;5027609;28;20212;-72
2023/01/16 07:28:59;;;;;;;4.00;0.93;;;;;;;4.50;100.00;99270.84;5027348;28;20202;-73
2023/01/16 07:31:25;;;;;;;3.17;1.13;;;;;;;4.46;100.00;99273.31;5026266;28;20186;-73
2023/01/16 07:33:51;;;;;;;2.93;1.00;;;;;;;4.43;100.00;99264.00;5029717;28;20194;-73
2023/01/16 07:36:16;;;;;;;3.37;1.17;;;;;;;4.41;100.00;99268.16;5029008;28;20698;-74
2023/01/16 07:38:42;;;;;;;4.10;0.90;;;;;;;4.39;100.00;99272.38;5027300;28;20194;-73
2023/01/16 07:41:07;;;;;;;5.00;1.20;;;;;;;4.32;100.00;99264.63;5031056;28;20247;-73
2023/01/16 07:43:33;;;;;;;3.83;1.03;;;;;;;4.28;100.00;99261.16;5024142;28;20647;-73
2023/01/16 07:45:58;;;;;;;4.17;1.33;;;;;;;4.22;100.00;99260.19;5032610;28;20197;-72
2023/01/16 07:48:24;;;;;;;3.87;1.57;;;;;;;4.20;100.00;99265.25;5026446;28;20663;-73
2023/01/16 07:50:51;;;;;;;2.23;1.30;;;;;;;4.19;100.00;99262.69;5027360;28;20586;-73
2023/01/16 07:53:21;;;;;;;5.47;1.17;;;;;;;4.18;100.00;99260.97;5026948;28;20301;-72
2023/01/16 07:55:48;;;;;;;3.93;1.97;;;;;;;4.15;100.00;99248.25;5026152;28;20206;-73
2023/01/16 07:58:13;;;;;;;5.37;1.43;;;;;;;4.12;100.00;99251.59;5030107;28;20251;-73
2023/01/16 08:00:39;;;;;;;4.77;1.30;;;;;;;4.09;100.00;99250.69;5023185;28;20217;-73
2023/01/16 08:03:04;;;;;;;3.60;1.17;;;;;;;4.08;100.00;99243.88;5023711;28;20218;-73
2023/01/16 08:05:30;;;;;;;3.33;1.30;;;;;;;4.06;100.00;99227.81;5024686;28;20195;-73
2023/01/16 08:07:55;;;;;;;3.97;1.60;;;;;;;4.01;100.00;99229.41;5028140;28;20198;-74
2023/01/16 08:10:21;;;;;;;4.33;1.50;;;;;;;4.02;100.00;99228.59;5027112;28;20199;-72
2023/01/16 08:12:46;;;;;;;1.57;0.90;;;;;;;4.04;100.00;99224.38;5018585;28;20229;-72
2023/01/16 08:15:12;;;;;;;2.27;1.00;;;;;;;4.07;100.00;99222.78;5026585;28;20564;-73
2023/01/16 08:17:39;;;;;;;3.30;1.40;;;;;;;4.06;100.00;99220.22;5010062;28;20403;-73
2023/01/16 08:20:05;;;;;;;2.63;0.87;;;;;;;4.11;100.00;99219.50;5029179;28;20198;-72
2023/01/16 08:22:31;;;;;;;3.47;1.30;;;;;;;4.15;100.00;99222.94;5027965;28;20301;-73
2023/01/16 08:24:56;;;;;;;6.57;1.20;;;;;;;4.15;100.00;99221.22;5026917;28;20611;-73
2023/01/16 08:27:21;;;;;;;2.17;1.00;;;;;;;4.16;100.00;99212.84;5030277;28;20198;-72
2023/01/16 08:29:47;;;;;;;3.80;1.13;;;;;;;4.21;100.00;99215.44;5011902;28;20221;-72
2023/01/16 08:32:12;;;;;;;2.30;0.90;;;;;;;4.32;100.00;99217.34;5028767;28;20264;-73
2023/01/16 08:34:38;;;;;;;2.03;1.17;;;;;;;4.37;100.00;99214.91;5029948;28;20198;-72
2023/01/16 08:37:04;;;;;;;2.20;1.00;;;;;;;4.41;100.00;99207.34;5014876;28;20222;-73
2023/01/16 08:39:29;;;;;;;1.73;1.00;;;;;;;4.38;100.00;99199.69;5018687;28;20190;-73
2023/01/16 08:53:02;;;;;;;2.63;0.87;;;;;;;4.65;100.00;99190.00;5023733;28;20584;-73
2023/01/16 08:55:27;;;;;;;1.87;0.90;;;;;;;4.68;100.00;99187.53;5026983;28;20194;-73
2023/01/16 08:57:53;;;;;;;5.73;1.60;;;;;;;4.74;100.00;99184.25;5021792;28;20193;-72
2023/01/16 09:00:21;;;;;;;3.30;1.13;;;;;;;4.75;100.00;99180.88;5025307;28;20256;-72
2023/01/16 09:02:47;;;;;;;2.90;1.10;;;;;;;4.82;100.00;99181.00;5031290;28;20612;-72
2023/01/16 09:05:13;;;;;;;2.33;1.23;;;;;;;4.83;100.00;99164.94;5027214;28;20209;-73
2023/01/16 09:07:39;;;;;;;4.27;1.50;;;;;;;4.93;100.00;99161.72;5028118;28;20255;-72
2023/01/16 09:10:05;;;;;;;3.33;1.20;;;;;;;4.96;100.00;99159.22;5027763;28;20205;-72
2023/01/16 09:15:15;;;;;;;5.53;1.63;;;;;;;5.05;100.00;99144.13;5027270;28;20237;-72
2023/01/16 09:17:40;;;;;;;2.73;1.40;;;;;;;5.09;100.00;99128.13;5029249;28;20249;-73
2023/01/16 09:20:06;;;;;;;4.93;2.00;;;;;;;5.18;100.00;99129.91;5026787;28;20190;-72
2023/01/16 09:22:32;;;;;;;3.30;1.93;;;;;;;5.14;100.00;99131.56;5024070;28;20230;-72
2023/01/16 09:24:58;;;;;;;3.27;1.70;;;;;;;5.06;100.00;99128.09;5027785;28;20232;-72
2023/01/16 09:27:24;;;;;;;3.03;1.43;;;;;;;4.95;100.00;99133.84;5011504;28;20198;-74
2023/01/16 09:29:50;;;;;;;3.77;1.33;;;;;;;5.10;100.00;99131.50;5025829;28;20210;-73
2023/01/16 09:32:17;;;;;;;2.97;1.80;;;;;;;5.12;100.00;99122.25;5020856;28;20214;-73
2023/01/16 09:34:42;;;;;;;3.83;1.40;;;;;;;5.26;100.00;99125.81;5024496;28;20213;-73
2023/01/16 09:37:08;;;;;;;5.60;1.77;;;;;;;5.22;100.00;99121.53;5025225;28;20223;-73
2023/01/16 09:39:34;;;;;;;3.60;1.83;;;;;;;5.29;100.00;99120.78;5026703;28;20290;-73
2023/01/16 09:45:10;;;;;;;3.13;1.43;;;;;;;5.15;100.00;99102.00;5010883;28;20198;-72
2023/01/16 09:47:37;;;;;;;5.23;1.30;;;;;;;5.11;100.00;99100.25;5023267;28;20923;-71
2023/01/16 09:50:12;;;;;;;3.70;1.17;;;;;;;5.12;100.00;99094.34;5024957;28;20191;-72
2023/01/16 09:58:41;;;;;;;4.43;1.23;;;;;;;5.11;100.00;99085.03;5014491;28;20284;-73
2023/01/16 10:01:25;;;;;;;3.87;1.50;;;;;;;5.18;100.00;99071.59;5025647;28;20893;-71
2023/01/16 10:03:54;;;;;;;2.30;1.23;;;;;;;5.23;100.00;99064.88;5021092;28;20262;-71
2023/01/16 10:06:25;;;;;;;4.23;1.40;;;;;;;5.25;100.00;99061.53;5022605;28;20442;-72
2023/01/16 10:09:03;;;;;;;3.30;1.20;;;;;;;5.31;100.00;99064.16;5028704;28;20198;-73
2023/01/16 10:11:35;;;;;;;2.77;1.37;;;;;;;5.34;100.00;99043.84;5024377;28;20229;-72
2023/01/16 10:14:03;;;;;;;3.80;1.43;;;;;;;5.39;100.00;99039.69;5025277;28;20256;-72
2023/01/16 10:17:00;;;;;;;5.77;1.50;;;;;;;5.41;100.00;99042.25;5025482;28;20255;-72
2023/01/16 10:19:59;;;;;;;5.00;1.10;;;;;;;5.53;100.00;99044.91;5031665;28;20644;-71
2023/01/16 10:22:31;;;;;;;3.73;1.40;;;;;;;5.67;100.00;99031.50;5021877;28;20379;-71
2023/01/16 10:25:13;;;;;;;3.73;1.33;;;;;;;6.05;100.00;99030.19;5027035;28;20223;-70
2023/01/16 10:28:04;;;;;;;4.07;1.30;;;;;;;6.31;100.00;99025.31;5026272;28;20201;-71
2023/01/16 10:30:44;;;;;;;3.83;1.30;;;;;;;7.16;100.00;99018.09;5010823;28;20333;-71
2023/01/16 10:33:16;;;;;;;3.20;1.20;;;;;;;9.58;89.37;99002.44;5025756;28;20210;-71
2023/01/16 10:35:49;;;;;;;3.43;1.00;;;;;;;9.75;83.53;99003.13;5013284;28;20198;-71
2023/01/16 10:38:45;;;;;;;3.17;1.03;;;;;;;10.10;79.24;98985.84;5028008;28;20590;-71
2023/01/16 10:50:06;;;;;;;4.10;1.10;;;;;;;11.17;69.84;98957.31;5029025;28;20217;-72
2023/01/16 10:52:32;;;;;;;3.00;1.10;;;;;;;9.77;75.01;98961.38;5029749;28;20218;-73
2023/01/16 10:55:00;;;;;;;3.83;1.00;;;;;;;9.68;78.56;98961.44;5022265;28;20191;-72
2023/01/16 10:57:27;;;;;;;2.60;0.80;;;;;;;9.90;78.84;98950.19;5007422;28;20620;-73
2023/01/16 11:00:22;;;;;;;2.50;1.27;;;;;;;9.47;79.09;98936.06;5026065;28;20301;-73
2023/01/16 11:02:48;;;;;;;3.00;1.00;;;;;;;9.71;78.56;98929.91;5028209;28;20249;-73
2023/01/16 11:05:25;;;;;;;2.87;1.13;;;;;;;9.92;77.25;98925.47;5030815;28;20194;-72
2023/01/16 11:08:01;;;;;;;1.97;0.90;;;;;;;9.57;79.02;98907.03;5012757;28;20549;-72
2023/01/16 11:10:26;;;;;;;3.03;1.20;;;;;;;9.70;79.16;98895.84;5029633;28;20201;-72
2023/01/16 11:18:34;;;;;;;1.63;1.07;;;;;;;8.17;86.03;98875.47;5021906;28;20872;-74
2023/01/16 11:21:22;;;;;;;5.10;1.10;;;;;;;7.88;88.08;98870.44;5022288;28;20285;-72
2023/01/16 11:23:48;;;;;;;3.83;1.13;;;;;;;7.82;88.10;98857.72;5024868;28;20230;-73
2023/01/16 11:26:15;;;;;;;2.27;1.20;;;;;;;7.82;89.49;98854.31;5020343;28;20198;-72
2023/01/16 11:28:47;;;;;;;3.37;1.57;;;;;;;7.74;89.39;98849.22;5022310;28;20623;-71
2023/01/16 11:31:17;;;;;;;7.30;1.60;;;;;;;7.74;89.93;98844.13;5021371;28;20209;-71
2023/01/16 11:33:57;;;;;;;3.10;1.23;;;;;;;7.66;90.24;98833.13;5010274;28;20229;-71
2023/01/16 11:36:24;;;;;;;2.83;1.00;;;;;;;7.60;92.04;98822.09;5009713;28;20582;-71
2023/01/16 11:38:51;;;;;;;1.90;1.23;;;;;;;7.55;91.72;98806.81;5026034;28;20321;-71
2023/01/16 11:41:26;;;;;;;2.00;1.10;;;;;;;7.76;91.87;98805.94;5030325;28;20554;-72
2023/01/16 11:47:01;;;;;;;3.40;1.43;;;;;;;8.68;86.28;98783.44;5026290;28;20222;-72
2023/01/16 11:49:37;;;;;;;2.60;1.10;;;;;;;9.30;82.25;98774.44;5024023;28;20237;-72
2023/01/16 11:52:03;;;;;;;3.03;1.00;;;;;;;10.22;75.42;98766.63;5028188;28;20214;-71
2023/01/16 11:54:31;;;;;;;2.30;1.23;;;;;;;11.01;72.77;98763.78;5010103;28;21179;-71
2023/01/16 11:57:13;;;;;;;1.67;1.10;;;;;;;10.14;72.69;98755.63;5028439;28;20663;-72
2023/01/16 12:00:06;;;;;;;2.33;1.30;;;;;;;10.01;75.93;98751.53;5018049;28;20197;-72
2023/01/16 12:03:02;;;;;;;3.50;1.30;;;;;;;9.81;75.44;98735.56;5023088;28;20217;-72
2023/01/16 12:06:03;;;;;;;2.10;0.93;;;;;;;9.26;78.21;98726.81;5025244;28;20202;-72
2023/01/16 12:08:56;;;;;;;2.37;1.20;;;;;;;9.13;78.79;98725.22;5025004;28;20195;-72
2023/01/16 12:11:44;;;;;;;2.60;1.33;;;;;;;8.46;81.12;98713.88;5020780;28;20246;-71
2023/01/16 12:14:27;;;;;;;3.87;1.17;;;;;;;8.54;81.08;98703.63;4997095;28;20218;-71
2023/01/16 12:17:02;;;;;;;2.63;1.00;;;;;;;8.50;80.69;98694.28;5022552;28;20289;-72
2023/01/16 12:20:06;;;;;;;1.93;1.17;;;;;;;8.51;82.93;98696.84;5026346;28;20702;-72
2023/01/16 12:23:03;;;;;;;2.77;1.03;;;;;;;8.25;82.38;98683.41;5029079;28;20237;-72
2023/01/16 12:25:54;;;;;;;1.47;0.97;;;;;;;8.32;82.70;98684.22;5024372;28;20209;-71
2023/01/16 12:28:31;;;;;;;3.20;1.50;;;;;;;8.27;82.19;98668.97;5025965;28;20197;-72
2023/01/16 12:31:48;;;;;;;3.63;1.30;;;;;;;8.21;82.36;98661.34;5027361;28;20194;-71
2023/01/16 12:34:47;;;;;;;4.13;1.17;;;;;;;8.78;80.55;98649.84;4994015;28;20202;-72
2023/01/16 12:37:21;;;;;;;2.20;1.00;;;;;;;9.09;77.89;98638.50;5026903;28;20200;-71
2023/01/16 12:40:17;;;;;;;4.87;1.27;;;;;;;8.90;79.41;98634.44;5026654;28;20559;-71
2023/01/16 12:43:18;;;;;;;1.97;1.10;;;;;;;9.03;79.40;98611.31;5025484;28;20297;-71